Time;durP1;ratioP1;P1;durP2;ratioP2;P2;SDS_P1;SDS_P2;PMS_P1;PMS_P2;Temp;Humidity;BMP_temperature;BMP_pressure;BME280_temperature;BME280_humidity;BME280_pressure;Samples;Min_cycle;Max_cycle;Signal;HPM_P1;HPM_P2
2022/02/08 00:00:01;;;;;;;6.80;2.30;;;;;;;2.25;62.96;100386.05;1432293;90;21681;-82
2022/02/08 00:02:07;;;;;;;8.07;3.43;;;;;;;2.24;63.03;100387.82;1450059;90;22503;-82
2022/02/08 00:04:31;;;;;;;7.93;2.90;;;;;;;2.23;62.98;100383.52;1449488;89;21592;-82
2022/02/08 00:07:01;;;;;;;7.43;2.90;;;;;;;2.19;63.13;100391.17;1456756;90;21681;-82
2022/02/08 00:09:27;;;;;;;9.23;3.00;;;;;;;2.15;63.25;100394.89;1447416;90;21869;-82
2022/02/08 00:11:53;;;;;;;8.30;3.10;;;;;;;2.11;63.09;100398.64;1452559;89;21805;-83
2022/02/08 00:14:19;;;;;;;6.20;2.40;;;;;;;2.07;63.21;100404.13;1456876;90;22782;-84
2022/02/08 00:16:45;;;;;;;5.33;3.03;;;;;;;2.03;63.07;100416.06;1453801;90;21939;-83
2022/02/08 00:19:11;;;;;;;9.07;3.87;;;;;;;2.01;63.12;100409.26;1450423;88;22710;-85
2022/02/08 00:21:39;;;;;;;5.83;3.20;;;;;;;1.99;63.38;100413.76;1457038;87;22453;-84
2022/02/08 00:24:07;;;;;;;7.23;3.40;;;;;;;1.96;63.34;100407.42;1465929;88;21574;-85
2022/02/08 00:26:33;;;;;;;5.27;2.80;;;;;;;1.94;63.47;100421.02;1469511;88;21744;-84
2022/02/08 00:28:59;;;;;;;7.53;3.77;;;;;;;1.92;63.53;100421.56;1467436;88;21960;-82
2022/02/08 00:31:25;;;;;;;8.87;3.57;;;;;;;1.91;63.61;100429.03;1477690;88;22647;-82
2022/02/08 00:33:51;;;;;;;6.90;2.90;;;;;;;1.88;63.78;100419.61;1473735;88;21653;-82
2022/02/08 00:36:18;;;;;;;5.10;3.07;;;;;;;1.86;63.88;100433.69;1476433;88;21730;-82
2022/02/08 00:38:44;;;;;;;5.57;2.90;;;;;;;1.82;64.15;100440.03;1461548;88;22263;-83
2022/02/08 00:41:10;;;;;;;9.40;2.90;;;;;;;1.73;64.25;100443.55;1438679;90;21712;-82
2022/02/08 00:43:50;;;;;;;8.40;3.57;;;;;;;1.67;64.69;100442.62;1419229;91;21624;-82
2022/02/08 00:46:13;;;;;;;5.37;2.55;;;;;;;1.58;65.20;100447.05;1443080;91;21867;-82
2022/02/08 00:48:41;;;;;;;9.37;3.10;;;;;;;1.50;65.06;100434.94;1418784;91;21649;-82
2022/02/08 00:51:09;;;;;;;9.90;4.15;;;;;;;1.43;65.47;100445.34;1436204;90;21854;-82
2022/02/08 00:53:36;;;;;;;8.63;3.17;;;;;;;1.35;65.24;100451.85;1434616;91;21639;-82
2022/02/08 00:56:03;;;;;;;6.67;2.43;;;;;;;1.29;65.29;100452.17;1434948;91;22838;-82
2022/02/08 00:58:30;;;;;;;9.67;4.10;;;;;;;1.25;65.48;100451.98;1437843;91;22819;-82
2022/02/08 01:01:02;;;;;;;7.60;3.97;;;;;;;1.19;65.36;100454.95;1431142;91;21896;-82
2022/02/08 01:03:28;;;;;;;8.73;3.80;;;;;;;1.17;66.03;100471.13;1435287;89;21843;-82
2022/02/08 01:06:04;;;;;;;21.33;6.90;;;;;;;1.09;66.03;100468.11;1411274;92;21825;-82
2022/02/08 01:08:30;;;;;;;6.60;3.10;;;;;;;1.04;66.21;100471.46;1444375;90;21797;-82
2022/02/08 01:10:52;;;;;;;7.30;2.83;;;;;;;0.98;66.21;100481.77;1456209;89;21841;-83
2022/02/08 01:13:18;;;;;;;7.50;3.50;;;;;;;0.94;66.08;100493.73;1460424;89;21817;-83
2022/02/08 01:15:44;;;;;;;7.97;4.07;;;;;;;0.87;66.40;100489.33;1451105;89;21812;-82
2022/02/08 01:18:10;;;;;;;7.00;4.60;;;;;;;0.80;66.60;100494.02;1460383;89;21648;-82
2022/02/08 01:20:38;;;;;;;10.27;3.97;;;;;;;0.72;66.94;100500.56;1440900;90;21704;-81
2022/02/08 01:23:09;;;;;;;7.23;3.57;;;;;;;0.64;67.40;100507.05;1468029;89;21590;-81
2022/02/08 01:25:46;;;;;;;6.90;3.15;;;;;;;0.55;67.50;100505.41;1461743;89;21708;-82
2022/02/08 01:28:15;;;;;;;6.70;3.77;;;;;;;0.47;67.13;100504.50;1468966;89;21390;-81
2022/02/08 01:30:46;;;;;;;8.80;4.13;;;;;;;0.41;67.07;100515.24;1441838;89;21783;-82
2022/02/08 01:33:23;;;;;;;7.67;3.87;;;;;;;0.36;66.96;100515.47;1459261;89;21739;-81
2022/02/08 01:35:52;;;;;;;11.87;4.17;;;;;;;0.27;68.07;100522.93;1456501;89;21744;-83
2022/02/08 01:38:09;;;;;;;5.70;2.85;;;;;;;0.18;67.55;100525.55;1459292;89;21717;-83
2022/02/08 01:46:10;;;;;;;11.85;3.95;;;;;;;-0.03;68.25;100537.44;1463782;89;21492;-85
2022/02/08 01:48:40;;;;;;;6.20;3.00;;;;;;;-0.09;68.36;100537.72;1469374;89;21471;-85
2022/02/08 01:50:55;;;;;;;6.28;3.20;;;;;;;-0.12;68.95;100535.27;1462108;89;21514;-84
2022/02/08 01:53:23;;;;;;;6.22;2.90;;;;;;;-0.13;69.27;100532.30;1464625;89;21560;-84
2022/02/08 01:55:51;;;;;;;8.83;3.05;;;;;;;-0.13;68.98;100532.77;1458348;89;21448;-85
2022/02/08 01:58:20;;;;;;;10.50;3.65;;;;;;;-0.16;68.92;100539.42;1463185;89;21629;-84
2022/02/08 02:00:46;;;;;;;6.55;2.50;;;;;;;-0.15;68.89;100531.98;1464783;89;22306;-82
2022/02/08 02:03:12;;;;;;;11.55;5.33;;;;;;;-0.15;69.71;100544.53;1463599;89;21479;-82
2022/02/08 02:05:39;;;;;;;9.98;3.27;;;;;;;-0.11;69.86;100545.25;1462970;89;22927;-81
2022/02/08 02:08:05;;;;;;;9.65;4.25;;;;;;;-0.09;69.29;100544.22;1461215;89;22039;-83
2022/02/08 02:10:33;;;;;;;7.87;3.33;;;;;;;-0.09;69.65;100544.22;1469234;89;21589;-83
2022/02/08 02:13:04;;;;;;;13.43;3.58;;;;;;;-0.08;69.50;100552.43;1437397;89;21529;-82
2022/02/08 02:15:32;;;;;;;7.08;2.95;;;;;;;-0.08;69.26;100549.83;1464899;88;21614;-83
2022/02/08 02:18:00;;;;;;;14.70;5.12;;;;;;;-0.08;69.01;100557.63;1442981;89;21509;-83
2022/02/08 02:20:28;;;;;;;13.13;4.70;;;;;;;-0.08;69.46;100557.63;1451646;89;23570;-83
2022/02/08 02:22:54;;;;;;;6.08;2.60;;;;;;;-0.07;69.32;100560.61;1454478;89;22249;-84
2022/02/08 02:25:30;;;;;;;10.28;3.25;;;;;;;-0.05;68.89;100568.36;1429083;91;21434;-83
2022/02/08 02:28:06;;;;;;;6.97;3.35;;;;;;;-0.04;69.37;100572.16;1443574;90;21419;-81
2022/02/08 02:30:40;;;;;;;11.48;3.35;;;;;;;-0.03;69.02;100577.77;1446739;90;21705;-84
2022/02/08 02:33:08;;;;;;;6.37;2.47;;;;;;;-0.04;68.75;100577.36;1436879;89;21513;-83
2022/02/08 02:35:38;;;;;;;6.45;2.60;;;;;;;-0.03;68.80;100588.17;1442361;90;21956;-81
2022/02/08 02:38:06;;;;;;;11.78;2.72;;;;;;;-0.03;69.10;100586.88;1439164;90;21571;-83
2022/02/08 02:40:36;;;;;;;8.45;2.95;;;;;;;-0.04;69.65;100585.17;1442748;89;22357;-82
2022/02/08 02:43:02;;;;;;;14.53;3.67;;;;;;;-0.08;69.39;100588.86;1455508;89;21412;-81
2022/02/08 02:45:35;;;;;;;12.95;3.67;;;;;;;-0.05;69.43;100599.11;1429604;91;21511;-81
2022/02/08 02:48:04;;;;;;;9.95;3.67;;;;;;;-0.10;69.12;100591.98;1425278;91;21494;-80
2022/02/08 02:50:30;;;;;;;9.35;3.20;;;;;;;-0.08;69.01;100596.66;1432300;91;21446;-81
2022/02/08 02:52:56;;;;;;;7.95;2.55;;;;;;;-0.09;69.03;100596.72;1426595;91;22608;-81
2022/02/08 02:55:22;;;;;;;9.78;3.65;;;;;;;-0.14;69.29;100603.94;1427411;91;21511;-81
2022/02/08 02:57:53;;;;;;;9.38;3.27;;;;;;;-0.16;69.65;100605.30;1432987;91;21444;-81
2022/02/08 03:17:33;;;;;;;11.08;3.25;;;;;;;-0.27;70.07;100604.97;1410650;91;21628;-81
2022/02/08 03:19:41;;;;;;;7.45;3.05;;;;;;;-0.36;70.34;100643.13;1435503;91;21646;-81
2022/02/08 03:22:07;;;;;;;8.18;3.60;;;;;;;-0.40;70.59;100654.58;1432988;90;21623;-81
2022/02/08 03:24:33;;;;;;;7.30;3.92;;;;;;;-0.41;70.11;100651.14;1436133;91;21543;-81
2022/02/08 03:26:59;;;;;;;14.05;4.35;;;;;;;-0.42;69.99;100653.83;1434333;91;21460;-81
2022/02/08 03:29:25;;;;;;;10.18;2.58;;;;;;;-0.43;70.02;100655.59;1435683;91;21682;-81
2022/02/08 03:31:51;;;;;;;13.63;3.27;;;;;;;-0.42;69.88;100665.06;1437442;91;22354;-81
2022/02/08 03:34:17;;;;;;;6.45;2.40;;;;;;;-0.42;69.83;100670.27;1438217;91;21497;-83
2022/02/08 03:36:44;;;;;;;6.92;3.22;;;;;;;-0.41;70.05;100672.41;1430776;91;21499;-83
2022/02/08 03:39:20;;;;;;;7.42;3.12;;;;;;;-0.39;69.98;100679.69;1437779;91;21519;-83
2022/02/08 03:41:48;;;;;;;8.43;4.15;;;;;;;-0.36;69.69;100683.45;1440314;90;21741;-83
2022/02/08 03:44:21;;;;;;;10.68;3.83;;;;;;;-0.35;69.73;100684.66;1435006;91;21562;-83
2022/02/08 03:46:46;;;;;;;7.47;3.25;;;;;;;-0.31;70.16;100690.12;1433291;91;21608;-83
2022/02/08 03:49:13;;;;;;;8.67;3.17;;;;;;;-0.28;70.00;100696.48;1438487;91;22613;-83
2022/02/08 03:51:51;;;;;;;12.47;3.45;;;;;;;-0.21;70.07;100702.23;1425770;91;22249;-83
2022/02/08 03:54:18;;;;;;;10.48;3.92;;;;;;;-0.16;69.96;100708.52;1425814;91;21504;-83
2022/02/08 03:56:45;;;;;;;8.15;2.67;;;;;;;-0.09;69.80;100716.41;1435170;91;21512;-81
2022/02/08 03:59:13;;;;;;;9.08;3.58;;;;;;;-0.05;69.78;100724.02;1436908;91;21387;-81
2022/02/08 04:04:32;;;;;;;8.93;3.30;;;;;;;-0.03;69.55;100720.89;1421101;91;22438;-81
2022/02/08 04:06:56;;;;;;;11.27;3.90;;;;;;;-0.03;69.36;100726.52;1434965;91;23379;-81
2022/02/08 04:09:22;;;;;;;9.40;2.87;;;;;;;-0.07;69.82;100729.73;1412104;91;22761;-81
2022/02/08 04:12:09;;;;;;;7.83;3.13;;;;;;;-0.07;69.39;100738.84;1434849;91;21717;-81
2022/02/08 04:19:49;;;;;;;12.78;3.80;;;;;;;-0.08;69.60;100759.28;1434085;91;21460;-83
2022/02/08 04:33:15;;;;;;;10.32;3.30;;;;;;;-0.04;69.38;100769.92;1436884;91;22391;-82
2022/02/08 04:35:59;;;;;;;11.97;4.05;;;;;;;-0.04;69.37;100775.13;1438880;91;21607;-83
2022/02/08 04:38:36;;;;;;;10.32;4.05;;;;;;;-0.04;69.45;100776.43;1431969;91;22474;-84
2022/02/08 04:43:24;;;;;;;12.10;3.75;;;;;;;0.00;69.12;100775.85;1439423;91;22716;-82
2022/02/08 04:48:52;;;;;;;8.88;3.90;;;;;;;0.02;68.86;100782.27;1429239;91;22525;-81
2022/02/08 04:53:47;;;;;;;11.90;4.63;;;;;;;0.02;68.76;100797.89;1430160;91;22000;-81
2022/02/08 04:57:02;;;;;;;16.23;4.50;;;;;;;0.03;68.67;100791.75;1437132;90;22218;-81
2022/02/08 04:58:44;;;;;;;9.30;3.62;;;;;;;0.03;68.62;100796.53;1421087;91;22289;-81
2022/02/08 05:01:14;;;;;;;9.57;3.67;;;;;;;0.06;68.39;100802.89;1434983;91;21526;-81
2022/02/08 05:29:27;;;;;;;8.40;2.98;;;;;;;-0.01;68.20;100841.34;1421918;91;22240;-81
2022/02/08 05:48:46;;;;;;;10.43;3.08;;;;;;;0.30;67.85;100875.09;1431651;91;21652;-81
2022/02/08 05:51:13;;;;;;;14.65;3.85;;;;;;;0.33;67.81;100878.01;1415125;91;21696;-82
2022/02/08 05:53:45;;;;;;;10.00;2.98;;;;;;;0.33;67.90;100878.84;1433593;90;21741;-82
2022/02/08 05:56:15;;;;;;;10.87;4.67;;;;;;;0.36;67.95;100881.30;1435419;91;21548;-85
2022/02/08 05:58:45;;;;;;;11.03;3.45;;;;;;;0.40;68.01;100885.47;1434208;91;22426;-81
2022/02/08 06:01:13;;;;;;;17.12;4.30;;;;;;;0.50;71.72;100892.84;1438872;91;21637;-82
2022/02/08 06:03:39;;;;;;;6.33;3.40;;;;;;;0.59;69.02;100901.06;1436182;91;21689;-82
2022/02/08 06:06:05;;;;;;;9.73;3.73;;;;;;;0.75;69.50;100894.69;1417157;91;21625;-82
2022/02/08 06:08:31;;;;;;;8.73;3.60;;;;;;;0.93;70.15;100896.02;1438357;91;21638;-84
2022/02/08 06:11:04;;;;;;;6.43;2.17;;;;;;;1.02;68.39;100901.61;1431941;91;21750;-82
2022/02/08 06:13:29;;;;;;;14.80;5.30;;;;;;;1.03;67.02;100901.15;1450806;90;21972;-85
2022/02/08 06:16:11;;;;;;;8.23;4.27;;;;;;;1.08;66.82;100906.98;1417524;92;21701;-84
2022/02/08 06:18:26;;;;;;;10.63;5.57;;;;;;;1.13;66.71;100912.83;1414471;92;21727;-85
2022/02/08 06:20:52;;;;;;;10.30;3.80;;;;;;;1.16;66.33;100925.70;1418813;92;21762;-86
2022/02/08 06:23:19;;;;;;;12.63;5.23;;;;;;;1.18;66.12;100934.31;1408707;92;22724;-85
2022/02/08 06:25:45;;;;;;;13.77;6.93;;;;;;;1.21;65.85;100937.20;1463520;89;21651;-86
2022/02/08 06:28:12;;;;;;;12.63;7.60;;;;;;;1.24;66.24;100945.73;1458821;89;22674;-86
2022/02/08 06:30:39;;;;;;;5.93;3.23;;;;;;;1.25;66.31;100952.63;1413739;92;21765;-87
2022/02/08 06:33:06;;;;;;;10.60;4.73;;;;;;;1.26;66.23;100964.73;1412326;92;21783;-87
2022/02/08 06:35:34;;;;;;;5.37;2.50;;;;;;;1.26;66.01;100959.98;1417114;92;21637;-88
2022/02/08 06:38:01;;;;;;;11.23;3.97;;;;;;;1.28;65.95;100961.61;1418489;92;21733;-88
2022/02/08 06:40:29;;;;;;;16.70;4.63;;;;;;;1.31;66.10;100980.17;1449801;89;21805;-88
2022/02/08 06:43:02;;;;;;;7.00;2.43;;;;;;;1.32;66.00;100981.42;1406824;92;21795;-86
2022/02/08 06:45:28;;;;;;;7.87;2.50;;;;;;;1.35;65.99;100980.39;1408314;92;21801;-86
2022/02/08 06:47:54;;;;;;;8.30;3.10;;;;;;;1.37;65.39;100985.09;1409764;92;22675;-86
2022/02/08 06:50:21;;;;;;;5.20;1.70;;;;;;;1.40;65.33;100995.83;1420615;92;21807;-86
2022/02/08 06:52:48;;;;;;;7.67;3.47;;;;;;;1.42;65.01;100980.96;1415100;92;21786;-86
2022/02/08 06:55:16;;;;;;;5.73;2.73;;;;;;;1.44;65.47;100993.02;1412233;92;21758;-86
2022/02/08 06:57:50;;;;;;;6.53;3.57;;;;;;;1.41;63.97;100980.56;1415511;92;22655;-87
2022/02/08 07:00:29;;;;;;;7.43;3.63;;;;;;;1.45;64.60;100982.11;1415964;92;21901;-87
2022/02/08 07:02:51;;;;;;;8.23;2.77;;;;;;;1.48;64.79;100993.23;1412490;92;22784;-87
2022/02/08 07:05:18;;;;;;;6.77;2.67;;;;;;;1.49;64.26;100986.25;1456847;89;21907;-86
2022/02/08 07:07:44;;;;;;;10.47;2.30;;;;;;;1.51;64.43;100985.72;1454524;89;21889;-86
2022/02/08 07:10:10;;;;;;;4.13;2.33;;;;;;;1.54;63.73;100996.00;1453026;89;21902;-86
2022/02/08 07:12:37;;;;;;;6.13;3.13;;;;;;;1.54;63.76;100990.78;1441006;89;21797;-86
2022/02/08 07:15:09;;;;;;;5.57;2.53;;;;;;;1.57;64.04;100987.55;1454184;89;21656;-85
2022/02/08 07:17:32;;;;;;;10.73;4.33;;;;;;;1.56;63.76;100995.47;1452083;89;21695;-86
2022/02/08 07:19:58;;;;;;;4.90;3.17;;;;;;;1.60;64.03;100994.39;1403115;92;21728;-86
2022/02/08 07:22:24;;;;;;;8.20;2.87;;;;;;;1.61;63.36;100993.92;1410359;92;21788;-86
2022/02/08 07:24:50;;;;;;;10.27;3.80;;;;;;;1.63;64.13;101002.06;1407319;93;21704;-86
2022/02/08 07:27:16;;;;;;;6.63;2.77;;;;;;;1.66;63.87;101000.60;1398450;93;23751;-86
2022/02/08 07:29:50;;;;;;;10.90;2.50;;;;;;;1.70;64.03;101000.02;1442654;90;21659;-83
2022/02/08 07:32:11;;;;;;;5.37;2.43;;;;;;;1.68;63.37;101006.59;1444437;90;23592;-83
2022/02/08 07:34:53;;;;;;;12.07;3.13;;;;;;;1.68;63.67;101005.76;1426511;90;21739;-83
2022/02/08 07:37:31;;;;;;;8.83;3.63;;;;;;;1.70;63.37;101010.45;1411188;93;21855;-86
2022/02/08 07:39:53;;;;;;;9.87;3.27;;;;;;;1.69;63.32;101017.41;1403069;93;21570;-83
2022/02/08 07:42:16;;;;;;;8.13;3.10;;;;;;;1.72;62.92;101018.56;1400894;93;22883;-87
2022/02/08 07:44:43;;;;;;;5.83;2.97;;;;;;;1.76;63.20;101024.03;1407362;93;21792;-87
2022/02/08 07:47:09;;;;;;;10.53;3.40;;;;;;;1.80;63.51;101025.55;1412117;93;21800;-86
2022/02/08 07:49:39;;;;;;;8.80;3.13;;;;;;;1.85;63.31;101034.94;1404571;93;22585;-86
2022/02/08 07:52:04;;;;;;;5.93;3.17;;;;;;;1.90;63.34;101041.61;1408622;93;22654;-86
2022/02/08 07:54:31;;;;;;;9.13;3.63;;;;;;;1.92;62.89;101051.50;1404891;93;21892;-87
2022/02/08 07:56:57;;;;;;;9.97;2.87;;;;;;;1.93;62.41;101047.14;1401791;93;22794;-85
2022/02/08 07:59:23;;;;;;;12.30;3.97;;;;;;;1.97;62.83;101053.89;1402970;93;21760;-84
2022/02/08 08:01:49;;;;;;;7.00;3.53;;;;;;;2.02;63.12;101054.51;1402066;93;21684;-83
2022/02/08 08:04:15;;;;;;;5.10;2.47;;;;;;;2.05;62.42;101051.73;1400925;93;21517;-84
2022/02/08 08:06:41;;;;;;;9.03;4.33;;;;;;;2.13;62.35;101059.16;1401131;93;22571;-83
2022/02/08 08:09:07;;;;;;;17.17;4.40;;;;;;;2.14;61.37;101056.48;1406054;93;21555;-84
2022/02/08 08:11:42;;;;;;;;;;;;;;;2.21;62.52;101057.84;1407348;93;21878;-83
2022/02/08 08:14:08;;;;;;;11.30;3.73;;;;;;;2.23;61.68;101057.78;1409929;93;20418;-83
2022/02/08 08:21:41;;;;;;;13.13;4.30;;;;;;;2.36;61.85;101072.35;1435420;91;21990;-83
2022/02/08 08:24:08;;;;;;;15.70;4.60;;;;;;;2.37;61.00;101074.06;1445997;90;22897;-84
2022/02/08 08:26:38;;;;;;;12.13;4.57;;;;;;;2.42;61.55;101082.52;1446553;90;21465;-84
2022/02/08 08:29:05;;;;;;;13.97;4.57;;;;;;;2.44;61.14;101085.86;1459619;89;21676;-83
2022/02/08 08:31:31;;;;;;;20.97;5.70;;;;;;;2.46;60.76;101091.87;1455114;89;21725;-83
2022/02/08 08:34:00;;;;;;;9.83;3.93;;;;;;;2.47;61.17;101087.02;1454038;89;22619;-83
2022/02/08 08:36:29;;;;;;;14.93;5.07;;;;;;;2.53;60.79;101089.30;1453710;89;21711;-84
2022/02/08 08:38:56;;;;;;;11.07;4.27;;;;;;;2.53;60.79;101089.30;1457434;89;21667;-83
2022/02/08 08:41:46;;;;;;;12.33;4.53;;;;;;;2.70;60.39;101091.91;1458407;89;22781;-84
2022/02/08 08:52:51;;;;;;;9.53;4.80;;;;;;;3.00;60.31;101097.73;1446039;90;22785;-85
2022/02/08 08:55:04;;;;;;;;;;;;;;;3.04;59.45;101094.47;1435705;90;21813;-86
2022/02/08 08:57:31;;;;;;;11.60;4.57;;;;;;;3.26;60.28;101102.01;1436917;90;20248;-86
2022/02/08 08:59:58;;;;;;;10.07;4.53;;;;;;;3.37;60.13;101106.19;1439270;90;21852;-86
2022/02/08 09:02:24;;;;;;;12.17;4.60;;;;;;;3.41;59.25;101102.93;1443574;90;22140;-86
2022/02/08 09:04:52;;;;;;;12.60;4.43;;;;;;;3.52;59.36;101104.02;1425102;91;21820;-86
2022/02/08 09:07:18;;;;;;;14.27;5.43;;;;;;;3.57;57.97;101115.55;1442696;90;22809;-86
2022/02/08 09:09:47;;;;;;;14.57;5.43;;;;;;;3.57;57.97;101115.55;1441545;90;22100;-86
2022/02/08 09:15:04;;;;;;;5.93;3.33;;;;;;;3.73;58.87;101116.83;1422646;92;22244;-85
2022/02/08 09:17:51;;;;;;;17.63;5.43;;;;;;;3.92;59.26;101120.56;1414011;92;22269;-85
2022/02/08 09:20:21;;;;;;;9.85;4.20;;;;;;;4.08;59.17;101122.66;1414840;92;22185;-86
2022/02/08 09:22:53;;;;;;;9.00;2.57;;;;;;;4.19;56.49;101119.42;1417069;92;22511;-85
2022/02/08 09:25:17;;;;;;;11.30;4.73;;;;;;;4.21;56.30;101121.49;1414511;92;23272;-86
2022/02/08 09:30:17;;;;;;;14.97;4.27;;;;;;;4.25;56.70;101113.34;1438527;90;22177;-85
2022/02/08 09:32:51;;;;;;;9.80;3.30;;;;;;;4.25;56.70;101113.34;1441955;89;22426;-85
2022/02/08 09:35:14;;;;;;;12.80;4.03;;;;;;;4.35;55.98;101122.84;1418048;92;22247;-85
2022/02/08 09:37:42;;;;;;;6.80;2.47;;;;;;;4.32;56.06;101126.95;1413730;92;22237;-84
2022/02/08 09:40:11;;;;;;;6.57;3.47;;;;;;;4.32;55.83;101129.57;1427646;92;22134;-85
2022/02/08 09:42:39;;;;;;;8.83;3.10;;;;;;;4.34;55.51;101145.19;1418540;91;25704;-85
2022/02/08 09:45:16;;;;;;;9.87;3.10;;;;;;;4.20;55.82;101122.41;1443867;89;22274;-85
2022/02/08 09:48:00;;;;;;;14.60;4.13;;;;;;;4.24;56.06;101127.86;1458297;89;21578;-85
2022/02/08 09:50:29;;;;;;;8.60;4.05;;;;;;;4.28;56.89;101132.81;1453975;89;21559;-86
2022/02/08 09:53:00;;;;;;;9.43;3.97;;;;;;;4.35;57.08;101132.48;1457268;89;21360;-85
2022/02/08 09:55:38;;;;;;;17.92;5.37;;;;;;;4.44;57.43;101133.24;1464649;89;22154;-85
2022/02/08 09:58:07;;;;;;;17.57;4.70;;;;;;;4.56;57.58;101132.98;1432165;91;21494;-82
2022/02/08 10:00:36;;;;;;;12.17;3.67;;;;;;;4.59;56.64;101132.80;1436760;91;21581;-83
2022/02/08 10:03:12;;;;;;;9.83;3.90;;;;;;;4.59;56.64;101132.80;1434717;91;21398;-85
2022/02/08 10:05:45;;;;;;;8.93;3.53;;;;;;;4.48;55.80;101134.73;1430518;91;23035;-85
2022/02/08 10:08:13;;;;;;;9.73;4.40;;;;;;;4.39;55.51;101128.27;1434453;91;21397;-85
2022/02/08 10:10:39;;;;;;;11.17;3.30;;;;;;;4.44;56.58;101129.31;1464619;89;21324;-85
2022/02/08 10:23:56;;;;;;;9.70;3.40;;;;;;;4.88;57.35;101143.67;1460459;89;21573;-84
2022/02/08 10:26:42;;;;;;;14.07;5.43;;;;;;;4.96;56.58;101141.42;1458976;89;21419;-84
2022/02/08 10:28:59;;;;;;;15.73;5.63;;;;;;;5.01;56.61;101136.38;1426232;91;21567;-84
2022/02/08 10:39:26;;;;;;;14.33;4.70;;;;;;;5.10;56.21;101126.62;1427135;91;21391;-84
2022/02/08 10:41:53;;;;;;;9.43;4.30;;;;;;;5.11;55.94;101132.23;1440047;89;21339;-84
2022/02/08 10:44:19;;;;;;;18.90;6.23;;;;;;;5.10;56.18;101131.40;1446691;89;21445;-84
2022/02/08 10:46:46;;;;;;;16.43;5.70;;;;;;;5.18;56.38;101134.39;1434509;90;21378;-84
2022/02/08 10:49:15;;;;;;;14.90;5.40;;;;;;;5.28;56.82;101134.65;1439959;90;21370;-85
2022/02/08 10:54:19;;;;;;;13.67;5.43;;;;;;;5.24;55.38;101134.95;1446607;90;21607;-86
2022/02/08 10:56:52;;;;;;;15.07;6.87;;;;;;;5.14;56.00;101132.05;1427269;92;21590;-87
2022/02/08 10:59:27;;;;;;;14.93;6.80;;;;;;;5.06;56.69;101131.67;1378987;93;21436;-86
2022/02/08 11:02:05;;;;;;;16.30;4.80;;;;;;;5.05;57.23;101130.83;1400200;93;21473;-86
2022/02/08 11:07:32;;;;;;;9.77;3.57;;;;;;;5.11;57.33;101133.07;1442584;90;21368;-86
2022/02/08 11:09:56;;;;;;;14.60;5.23;;;;;;;5.03;57.17;101137.11;1441662;90;22528;-87
2022/02/08 11:12:17;;;;;;;9.57;3.60;;;;;;;5.03;57.51;101140.57;1442042;90;22428;-87
2022/02/08 11:20:31;;;;;;;12.60;4.30;;;;;;;4.97;57.58;101144.41;1424597;90;21533;-84
2022/02/08 11:23:01;;;;;;;24.98;5.47;;;;;;;5.07;57.76;101136.00;1417628;90;22079;-85
2022/02/08 11:25:30;;;;;;;8.37;4.17;;;;;;;5.15;57.52;101132.41;1427851;90;22273;-84
2022/02/08 11:28:25;;;;;;;12.93;4.97;;;;;;;5.24;57.47;101125.30;1445159;90;21400;-85
2022/02/08 11:58:10;;;;;;;9.83;3.63;;;;;;;7.14;51.60;101118.37;1459425;89;22514;-85
2022/02/08 12:00:33;;;;;;;7.77;3.07;;;;;;;7.16;49.92;101117.32;1419120;91;21493;-85
2022/02/08 12:02:57;;;;;;;7.80;3.27;;;;;;;7.07;49.01;101119.27;1433899;90;21553;-86
2022/02/08 12:05:30;;;;;;;6.70;2.97;;;;;;;7.11;49.45;101116.80;1433351;90;22410;-86
2022/02/08 12:08:00;;;;;;;7.73;3.13;;;;;;;7.42;50.28;101126.44;1440559;89;22085;-86
2022/02/08 12:10:39;;;;;;;4.13;1.97;;;;;;;7.96;48.78;101120.73;1455917;89;22490;-86
2022/02/08 12:27:09;;;;;;;5.00;2.10;;;;;;;8.47;46.17;101113.02;1419272;91;21589;-84
2022/02/08 12:28:32;;;;;;;5.80;2.03;;;;;;;10.44;41.58;101100.69;1459909;89;21440;-87
2022/02/08 12:35:56;;;;;;;7.80;2.40;;;;;;;10.80;36.02;101100.69;1461999;89;22720;-86
2022/02/08 12:50:16;;;;;;;5.67;2.50;;;;;;;9.83;37.95;101119.36;1464562;89;21353;-86
2022/02/08 14:06:13;;;;;;;6.07;1.63;;;;;;;8.25;40.74;101070.25;1436032;90;21512;-86
2022/02/08 14:14:12;;;;;;;7.97;2.77;;;;;;;7.83;41.29;101064.64;1456055;89;21486;-86
2022/02/08 14:16:44;;;;;;;5.47;2.10;;;;;;;7.79;41.77;101063.17;1449753;89;21449;-85
2022/02/08 14:22:10;;;;;;;5.30;2.23;;;;;;;7.68;41.87;101058.23;1389809;93;22377;-86
2022/02/08 14:29:56;;;;;;;7.90;3.17;;;;;;;7.84;42.37;101055.77;1508275;91;22936;-86
2022/02/08 15:07:52;;;;;;;27.37;15.23;;;;;;;6.23;45.05;101060.18;1452352;89;23698;-85
2022/02/08 15:09:52;;;;;;;20.33;12.10;;;;;;;6.10;45.35;101059.34;1442041;89;22481;-85
2022/02/08 15:12:18;;;;;;;21.83;12.30;;;;;;;6.01;45.63;101051.61;1452104;89;22371;-85
2022/02/08 15:14:52;;;;;;;27.27;12.98;;;;;;;5.95;45.94;101052.47;1456033;89;23365;-85
2022/02/08 15:17:13;;;;;;;;;;;;;;;5.91;46.12;101068.05;1432300;89;22458;-84
2022/02/08 15:19:42;;;;;;;67.40;32.93;;;;;;;5.80;47.33;101066.95;1432110;89;20407;-85
2022/02/08 15:22:08;;;;;;;82.03;38.27;;;;;;;5.71;46.80;101055.75;1416692;91;21582;-85
2022/02/08 15:24:36;;;;;;;70.70;33.73;;;;;;;5.64;47.15;101062.37;1422695;91;21555;-85
2022/02/08 15:27:13;;;;;;;;;;;;;;;;;;;;;
2022/02/08 15:32:30;;;;;;;39.30;17.53;;;;;;;5.47;48.19;101045.08;1418149;86;21664;-80
2022/02/08 15:34:56;;;;;;;25.90;10.87;;;;;;;5.41;48.86;101046.80;1423910;90;21362;-79
2022/02/08 15:37:22;;;;;;;19.30;8.57;;;;;;;5.35;49.05;101043.22;1427860;91;21561;-79
2022/02/08 15:39:51;;;;;;;36.53;14.00;;;;;;;5.28;49.08;101043.27;1415073;91;21428;-79
2022/02/08 15:42:19;;;;;;;68.70;32.47;;;;;;;5.22;49.41;101051.06;1420003;91;21487;-79
2022/02/08 15:44:48;;;;;;;87.67;42.57;;;;;;;5.13;49.67;101049.50;1393521;91;22580;-79
2022/02/08 15:47:13;;;;;;;91.40;43.43;;;;;;;5.05;50.23;101049.50;1427699;91;21339;-79
2022/02/08 15:49:46;;;;;;;61.87;31.60;;;;;;;4.98;50.34;101037.83;1411487;91;22557;-79
2022/02/08 15:52:28;;;;;;;63.30;28.97;;;;;;;4.89;50.46;101037.83;1405511;90;23665;-79
2022/02/08 15:54:50;;;;;;;76.43;36.40;;;;;;;4.86;50.61;101035.41;1427856;91;21586;-79
2022/02/08 16:05:38;;;;;;;26.13;11.30;;;;;;;4.55;51.73;101038.23;1420229;90;22120;-79
2022/02/08 16:07:57;;;;;;;26.53;11.77;;;;;;;4.50;51.52;101036.72;1414228;90;22142;-79
2022/02/08 16:10:31;;;;;;;21.68;10.45;;;;;;;4.45;51.70;101034.84;1427970;91;22355;-79
2022/02/08 16:13:07;;;;;;;39.37;20.20;;;;;;;4.43;51.77;101026.25;1424566;90;21480;-79
2022/02/08 16:15:33;;;;;;;46.07;25.60;;;;;;;4.38;52.23;101032.23;1427184;91;22262;-79
2022/02/08 16:20:53;;;;;;;27.63;14.23;;;;;;;4.28;52.60;101048.13;1426568;90;22103;-79
2022/02/08 16:45:52;;;;;;;22.90;9.57;;;;;;;4.09;53.25;101043.63;1412866;91;23105;-77
2022/02/08 16:50:41;;;;;;;11.67;5.30;;;;;;;3.94;53.52;101037.05;1383730;92;22181;-78
2022/02/08 16:52:49;;;;;;;11.48;6.62;;;;;;;3.97;53.44;101029.45;1436668;89;22128;-78
2022/02/08 17:00:23;;;;;;;18.90;9.23;;;;;;;4.05;53.98;101016.27;1411502;92;21948;-78
2022/02/08 17:02:54;;;;;;;27.70;10.27;;;;;;;4.05;53.98;101016.27;1411259;92;22254;-78
2022/02/08 17:05:17;;;;;;;21.30;10.43;;;;;;;4.00;54.15;101020.97;1413435;91;22050;-77
2022/02/08 17:07:43;;;;;;;18.93;9.90;;;;;;;4.02;53.83;101032.17;1431057;90;22957;-78
2022/02/08 17:10:23;;;;;;;12.30;7.33;;;;;;;4.02;53.83;101032.17;1410328;91;22082;-79
2022/02/08 17:12:44;;;;;;;21.17;9.67;;;;;;;3.96;54.18;101022.06;1369395;93;21573;-80
2022/02/08 17:49:54;;;;;;;46.37;19.13;;;;;;;3.69;56.50;101042.02;1383394;94;22930;-80
2022/02/08 17:52:21;;;;;;;61.00;22.43;;;;;;;3.68;56.70;101025.92;1390200;94;22068;-80
2022/02/08 17:54:47;;;;;;;54.80;23.40;;;;;;;3.66;57.06;101014.71;1390343;94;23000;-79
2022/02/08 17:57:32;;;;;;;51.67;21.27;;;;;;;3.63;57.08;101016.20;1383798;93;21928;-78
2022/02/08 17:59:58;;;;;;;46.40;21.43;;;;;;;3.59;57.66;101018.12;1392917;94;21834;-79
2022/02/08 18:02:25;;;;;;;59.20;23.80;;;;;;;3.56;57.69;101017.84;1403752;92;21750;-79
2022/02/08 18:04:53;;;;;;;54.10;23.00;;;;;;;3.53;58.03;101006.23;1388056;94;21919;-79
2022/02/08 18:07:24;;;;;;;54.57;22.03;;;;;;;3.50;57.79;101011.65;1403166;91;21921;-79
2022/02/08 18:09:52;;;;;;;44.42;23.32;;;;;;;3.48;58.65;101005.69;1399476;92;22820;-79
2022/02/08 18:12:21;;;;;;;44.30;22.47;;;;;;;3.46;58.29;101000.99;1301334;96;22295;-79